sensor_id;sensor_type;location;lat;lon;timestamp;pressure;altitude;pressure_sealevel;temperature;humidity
70902;BME280;58548;47.210;8.618;2023-03-03T00:00:49;94152.97;;;6.88;40.57
70902;BME280;58548;47.210;8.618;2023-03-03T00:03:19;94156.50;;;7.03;40.39
70902;BME280;58548;47.210;8.618;2023-03-03T00:05:45;94041.13;;;6.41;40.40
70902;BME280;58548;47.210;8.618;2023-03-03T00:08:11;94178.84;;;7.37;40.31
70902;BME280;58548;47.210;8.618;2023-03-03T00:10:39;94167.75;;;7.44;40.08
70902;BME280;58548;47.210;8.618;2023-03-03T00:13:19;94180.41;;;7.55;40.24
70902;BME280;58548;47.210;8.618;2023-03-03T00:15:48;94183.13;;;7.62;40.19
70902;BME280;58548;47.210;8.618;2023-03-03T00:20:55;94057.38;;;7.00;40.20
70902;BME280;58548;47.210;8.618;2023-03-03T00:25:55;94091.16;;;7.39;40.17
70902;BME280;58548;47.210;8.618;2023-03-03T00:30:53;94054.81;;;7.31;39.49
70902;BME280;58548;47.210;8.618;2023-03-03T00:33:27;94180.06;;;8.21;40.13
70902;BME280;58548;47.210;8.618;2023-03-03T00:35:57;94116.22;;;7.87;39.36
70902;BME280;58548;47.210;8.618;2023-03-03T00:38:27;94156.03;;;8.19;39.25
70902;BME280;58548;47.210;8.618;2023-03-03T00:40:55;94178.34;;;8.37;38.78
70902;BME280;58548;47.210;8.618;2023-03-03T00:43:24;94177.47;;;8.44;39.23
70902;BME280;58548;47.210;8.618;2023-03-03T00:45:57;94172.25;;;8.44;39.08
70902;BME280;58548;47.210;8.618;2023-03-03T00:48:27;94106.19;;;8.07;39.21
70902;BME280;58548;47.210;8.618;2023-03-03T00:51:01;94181.16;;;8.58;38.79
70902;BME280;58548;47.210;8.618;2023-03-03T00:53:31;94088.13;;;8.06;38.98
70902;BME280;58548;47.210;8.618;2023-03-03T00:56:01;94147.00;;;8.53;38.98
70902;BME280;58548;47.210;8.618;2023-03-03T00:58:27;94112.69;;;8.26;39.03
70902;BME280;58548;47.210;8.618;2023-03-03T01:00:55;94160.53;;;8.72;39.02
70902;BME280;58548;47.210;8.618;2023-03-03T01:03:26;94084.81;;;8.20;38.94
70902;BME280;58548;47.210;8.618;2023-03-03T01:05:52;94042.53;;;7.95;39.07
70902;BME280;58548;47.210;8.618;2023-03-03T01:08:20;94170.88;;;8.80;38.87
70902;BME280;58548;47.210;8.618;2023-03-03T01:10:58;94162.38;;;8.86;38.69
70902;BME280;58548;47.210;8.618;2023-03-03T01:13:30;94164.88;;;8.95;38.96
70902;BME280;58548;47.210;8.618;2023-03-03T01:15:57;94172.97;;;9.00;39.04
70902;BME280;58548;47.210;8.618;2023-03-03T01:18:23;94140.34;;;8.89;38.98
70902;BME280;58548;47.210;8.618;2023-03-03T01:20:52;94169.31;;;9.09;38.78
70902;BME280;58548;47.210;8.618;2023-03-03T01:23:18;94143.69;;;8.98;38.52
70902;BME280;58548;47.210;8.618;2023-03-03T01:25:46;94162.75;;;9.13;38.93
70902;BME280;58548;47.210;8.618;2023-03-03T01:28:12;94155.56;;;9.15;38.33
70902;BME280;58548;47.210;8.618;2023-03-03T01:30:38;94100.91;;;8.77;38.88
70902;BME280;58548;47.210;8.618;2023-03-03T01:33:04;94155.22;;;9.18;38.26
70902;BME280;58548;47.210;8.618;2023-03-03T01:35:33;94152.59;;;9.18;38.84
70902;BME280;58548;47.210;8.618;2023-03-03T01:38:01;94152.97;;;9.30;38.66
70902;BME280;58548;47.210;8.618;2023-03-03T01:40:33;94049.94;;;8.68;38.62
70902;BME280;58548;47.210;8.618;2023-03-03T01:43:00;94162.31;;;9.40;38.47
70902;BME280;58548;47.210;8.618;2023-03-03T01:45:44;94156.72;;;9.43;38.70
70902;BME280;58548;47.210;8.618;2023-03-03T01:48:31;94152.34;;;9.43;38.31
70902;BME280;58548;47.210;8.618;2023-03-03T01:53:43;94146.41;;;9.49;38.35
70902;BME280;58548;47.210;8.618;2023-03-03T01:56:13;94113.72;;;9.32;38.50
70902;BME280;58548;47.210;8.618;2023-03-03T01:58:46;94141.19;;;9.49;38.48
70902;BME280;58548;47.210;8.618;2023-03-03T02:01:22;94146.94;;;9.60;38.89
70902;BME280;58548;47.210;8.618;2023-03-03T02:03:49;94148.19;;;9.64;37.99
70902;BME280;58548;47.210;8.618;2023-03-03T02:06:26;94040.78;;;9.02;38.66
70902;BME280;58548;47.210;8.618;2023-03-03T02:09:06;94153.03;;;9.67;38.09
70902;BME280;58548;47.210;8.618;2023-03-03T02:11:39;94029.91;;;8.98;39.02
70902;BME280;58548;47.210;8.618;2023-03-03T02:14:10;94142.88;;;9.72;38.96
70902;BME280;58548;47.210;8.618;2023-03-03T02:16:39;94132.63;;;9.71;38.12
70902;BME280;58548;47.210;8.618;2023-03-03T02:19:20;94028.53;;;9.02;38.46
70902;BME280;58548;47.210;8.618;2023-03-03T02:21:51;94147.53;;;9.77;38.91
70902;BME280;58548;47.210;8.618;2023-03-03T02:24:27;94146.00;;;9.83;38.38
70902;BME280;58548;47.210;8.618;2023-03-03T02:26:57;94147.25;;;9.87;38.75
70902;BME280;58548;47.210;8.618;2023-03-03T02:29:28;94014.78;;;9.09;38.73
70902;BME280;58548;47.210;8.618;2023-03-03T02:31:54;94148.50;;;9.91;38.47
70902;BME280;58548;47.210;8.618;2023-03-03T02:34:23;94135.47;;;9.91;38.48
70902;BME280;58548;47.210;8.618;2023-03-03T02:36:48;94124.75;;;9.86;38.46
70902;BME280;58548;47.210;8.618;2023-03-03T02:39:25;94146.59;;;10.00;38.79
70902;BME280;58548;47.210;8.618;2023-03-03T02:44:29;94145.31;;;10.10;38.85
70902;BME280;58548;47.210;8.618;2023-03-03T02:46:57;94146.72;;;10.13;38.60
70902;BME280;58548;47.210;8.618;2023-03-03T02:49:30;94141.50;;;10.13;37.92
70902;BME280;58548;47.210;8.618;2023-03-03T02:51:57;94103.78;;;9.94;37.87
70902;BME280;58548;47.210;8.618;2023-03-03T02:54:26;94151.63;;;10.23;38.18
70902;BME280;58548;47.210;8.618;2023-03-03T02:56:52;94154.88;;;10.25;37.76
70902;BME280;58548;47.210;8.618;2023-03-03T02:59:18;94028.47;;;9.47;38.15
70902;BME280;58548;47.210;8.618;2023-03-03T03:01:45;94134.31;;;10.15;38.03
70902;BME280;58548;47.210;8.618;2023-03-03T03:04:20;94146.69;;;10.28;37.83
70902;BME280;58548;47.210;8.618;2023-03-03T03:06:46;94144.44;;;10.25;37.78
70902;BME280;58548;47.210;8.618;2023-03-03T03:09:16;94149.28;;;10.28;38.12
70902;BME280;58548;47.210;8.618;2023-03-03T03:11:43;94060.41;;;9.71;38.24
70902;BME280;58548;47.210;8.618;2023-03-03T03:14:14;94153.50;;;10.29;37.53
70902;BME280;58548;47.210;8.618;2023-03-03T03:16:41;94063.66;;;9.73;38.03
70902;BME280;58548;47.210;8.618;2023-03-03T03:19:09;94055.44;;;9.76;37.68
70902;BME280;58548;47.210;8.618;2023-03-03T03:21:36;94000.72;;;9.40;37.90
70902;BME280;58548;47.210;8.618;2023-03-03T03:24:02;94156.81;;;10.38;38.04
70902;BME280;58548;47.210;8.618;2023-03-03T03:26:28;94153.03;;;10.40;38.40
70902;BME280;58548;47.210;8.618;2023-03-03T03:28:53;94123.13;;;10.21;38.12
70902;BME280;58548;47.210;8.618;2023-03-03T03:31:22;94095.28;;;10.07;38.18
70902;BME280;58548;47.210;8.618;2023-03-03T03:33:48;94150.78;;;10.37;38.35
70902;BME280;58548;47.210;8.618;2023-03-03T03:36:14;94133.63;;;10.28;38.04
70902;BME280;58548;47.210;8.618;2023-03-03T03:38:39;94157.28;;;10.41;37.85
70902;BME280;58548;47.210;8.618;2023-03-03T03:41:06;94152.66;;;10.44;37.77
70902;BME280;58548;47.210;8.618;2023-03-03T03:43:32;94130.03;;;10.29;38.34
70902;BME280;58548;47.210;8.618;2023-03-03T03:45:58;94038.09;;;9.69;37.95
70902;BME280;58548;47.210;8.618;2023-03-03T03:48:27;94153.88;;;10.41;38.20
70902;BME280;58548;47.210;8.618;2023-03-03T03:50:55;94062.59;;;9.89;37.68
70902;BME280;58548;47.210;8.618;2023-03-03T03:53:23;94046.47;;;9.79;37.90
70902;BME280;58548;47.210;8.618;2023-03-03T03:55:51;94120.31;;;10.23;38.40
70902;BME280;58548;47.210;8.618;2023-03-03T03:58:22;94142.78;;;10.39;37.96
70902;BME280;58548;47.210;8.618;2023-03-03T04:00:48;94102.56;;;10.11;38.00
70902;BME280;58548;47.210;8.618;2023-03-03T04:03:14;94036.94;;;9.71;38.43
70902;BME280;58548;47.210;8.618;2023-03-03T04:05:46;94137.75;;;10.37;38.39
70902;BME280;58548;47.210;8.618;2023-03-03T04:08:12;94124.25;;;10.34;38.44
70902;BME280;58548;47.210;8.618;2023-03-03T04:10:38;94116.59;;;10.32;38.34
70902;BME280;58548;47.210;8.618;2023-03-03T04:13:06;94080.25;;;10.09;38.04
70902;BME280;58548;47.210;8.618;2023-03-03T04:15:32;94041.31;;;9.86;37.96
70902;BME280;58548;47.210;8.618;2023-03-03T04:17:58;94029.00;;;9.79;37.79
70902;BME280;58548;47.210;8.618;2023-03-03T04:20:26;94113.88;;;10.40;37.65
70902;BME280;58548;47.210;8.618;2023-03-03T04:22:55;94062.78;;;10.09;38.17
70902;BME280;58548;47.210;8.618;2023-03-03T04:25:23;94126.19;;;10.47;38.00
70902;BME280;58548;47.210;8.618;2023-03-03T04:27:56;94141.97;;;10.60;38.22
70902;BME280;58548;47.210;8.618;2023-03-03T04:30:25;94050.84;;;10.00;38.29
70902;BME280;58548;47.210;8.618;2023-03-03T04:32:51;94091.00;;;10.21;38.16
70902;BME280;58548;47.210;8.618;2023-03-03T04:35:18;94142.59;;;10.62;37.52
70902;BME280;58548;47.210;8.618;2023-03-03T04:37:46;94028.50;;;9.91;37.84
70902;BME280;58548;47.210;8.618;2023-03-03T04:40:12;94147.44;;;10.65;37.83
70902;BME280;58548;47.210;8.618;2023-03-03T04:42:41;94088.69;;;10.33;37.78
70902;BME280;58548;47.210;8.618;2023-03-03T04:45:09;94133.38;;;10.66;37.89
70902;BME280;58548;47.210;8.618;2023-03-03T04:47:38;94014.78;;;9.82;37.58
70902;BME280;58548;47.210;8.618;2023-03-03T04:50:04;94047.47;;;10.00;37.35
70902;BME280;58548;47.210;8.618;2023-03-03T04:52:33;94115.78;;;10.32;37.63
70902;BME280;58548;47.210;8.618;2023-03-03T04:54:59;94144.22;;;10.41;37.87
70902;BME280;58548;47.210;8.618;2023-03-03T04:57:27;94108.25;;;10.22;38.26
70902;BME280;58548;47.210;8.618;2023-03-03T04:59:53;94049.69;;;9.81;38.19
70902;BME280;58548;47.210;8.618;2023-03-03T05:02:19;94143.69;;;10.46;37.56
70902;BME280;58548;47.210;8.618;2023-03-03T05:04:49;94155.53;;;10.49;37.55
70902;BME280;58548;47.210;8.618;2023-03-03T05:07:15;94147.69;;;10.49;38.15
70902;BME280;58548;47.210;8.618;2023-03-03T05:09:46;94053.34;;;9.87;37.51
70902;BME280;58548;47.210;8.618;2023-03-03T05:12:14;94057.69;;;9.79;38.03
70902;BME280;58548;47.210;8.618;2023-03-03T05:14:41;94159.50;;;10.45;37.88
70902;BME280;58548;47.210;8.618;2023-03-03T05:17:07;94157.00;;;10.36;37.69
70902;BME280;58548;47.210;8.618;2023-03-03T05:19:36;94065.88;;;9.76;38.25
70902;BME280;58548;47.210;8.618;2023-03-03T05:22:02;94140.03;;;10.25;37.91
70902;BME280;58548;47.210;8.618;2023-03-03T05:24:30;94172.41;;;10.46;38.27
70902;BME280;58548;47.210;8.618;2023-03-03T05:27:01;94164.72;;;10.45;37.34
70902;BME280;58548;47.210;8.618;2023-03-03T05:29:28;94163.75;;;10.46;37.82
70902;BME280;58548;47.210;8.618;2023-03-03T05:31:58;94150.78;;;10.37;37.53
70902;BME280;58548;47.210;8.618;2023-03-03T05:34:26;94051.50;;;9.65;37.80
70902;BME280;58548;47.210;8.618;2023-03-03T05:36:55;94161.50;;;10.27;38.20
70902;BME280;58548;47.210;8.618;2023-03-03T05:39:23;94061.09;;;9.58;38.09
70902;BME280;58548;47.210;8.618;2023-03-03T05:41:52;94061.38;;;9.48;37.70
70902;BME280;58548;47.210;8.618;2023-03-03T05:44:18;94183.09;;;10.15;38.00
70902;BME280;58548;47.210;8.618;2023-03-03T05:46:44;94174.44;;;10.14;38.42
70902;BME280;58548;47.210;8.618;2023-03-03T05:49:10;94049.63;;;9.38;38.37
70902;BME280;58548;47.210;8.618;2023-03-03T05:51:35;94174.63;;;10.13;38.22
70902;BME280;58548;47.210;8.618;2023-03-03T05:54:04;94167.53;;;10.06;37.78
70902;BME280;58548;47.210;8.618;2023-03-03T05:56:34;94178.03;;;10.13;38.31
70902;BME280;58548;47.210;8.618;2023-03-03T05:59:02;94184.09;;;10.14;38.38
70902;BME280;58548;47.210;8.618;2023-03-03T06:01:28;94091.91;;;9.55;38.59
70902;BME280;58548;47.210;8.618;2023-03-03T06:03:57;94167.28;;;10.01;37.81
70902;BME280;58548;47.210;8.618;2023-03-03T06:06:25;94058.78;;;9.33;38.19
70902;BME280;58548;47.210;8.618;2023-03-03T06:08:56;94168.13;;;9.87;38.02
70902;BME280;58548;47.210;8.618;2023-03-03T06:11:21;94186.78;;;10.05;38.48
70902;BME280;58548;47.210;8.618;2023-03-03T06:13:47;94108.38;;;9.55;38.54
70902;BME280;58548;47.210;8.618;2023-03-03T06:16:13;94198.97;;;10.20;38.14
70902;BME280;58548;47.210;8.618;2023-03-03T06:18:42;94183.09;;;10.15;38.15
70902;BME280;58548;47.210;8.618;2023-03-03T06:21:10;94195.03;;;10.24;38.24
70902;BME280;58548;47.210;8.618;2023-03-03T06:23:39;94167.44;;;10.15;38.25
70902;BME280;58548;47.210;8.618;2023-03-03T06:26:08;94089.22;;;9.63;38.61
70902;BME280;58548;47.210;8.618;2023-03-03T06:28:36;94204.47;;;10.40;38.14
70902;BME280;58548;47.210;8.618;2023-03-03T06:31:02;94132.09;;;9.97;38.19
70902;BME280;58548;47.210;8.618;2023-03-03T06:33:28;94208.84;;;10.39;38.33
70902;BME280;58548;47.210;8.618;2023-03-03T06:35:57;94115.94;;;9.87;37.74
70902;BME280;58548;47.210;8.618;2023-03-03T06:38:25;94202.53;;;10.49;38.26
70902;BME280;58548;47.210;8.618;2023-03-03T06:40:53;94098.69;;;9.86;38.08
70902;BME280;58548;47.210;8.618;2023-03-03T06:43:22;94111.91;;;9.84;37.51
70902;BME280;58548;47.210;8.618;2023-03-03T06:45:50;94209.44;;;10.56;37.58
70902;BME280;58548;47.210;8.618;2023-03-03T06:48:16;94217.22;;;10.50;37.92
70902;BME280;58548;47.210;8.618;2023-03-03T06:50:44;94104.19;;;9.76;37.66
70902;BME280;58548;47.210;8.618;2023-03-03T06:53:15;94180.91;;;10.18;37.86
70902;BME280;58548;47.210;8.618;2023-03-03T06:55:42;94133.16;;;9.81;38.11
70902;BME280;58548;47.210;8.618;2023-03-03T06:58:18;94211.31;;;10.26;37.57
70902;BME280;58548;47.210;8.618;2023-03-03T07:00:55;94232.34;;;10.39;37.62
70902;BME280;58548;47.210;8.618;2023-03-03T07:03:24;94125.50;;;9.79;37.72
70902;BME280;58548;47.210;8.618;2023-03-03T07:05:53;94212.19;;;10.33;37.67
70902;BME280;58548;47.210;8.618;2023-03-03T07:08:22;94246.56;;;10.52;37.71
70902;BME280;58548;47.210;8.618;2023-03-03T07:10:53;94124.88;;;9.77;37.60
70902;BME280;58548;47.210;8.618;2023-03-03T07:13:22;94163.31;;;10.05;37.57
70902;BME280;58548;47.210;8.618;2023-03-03T07:15:51;94172.38;;;10.09;37.63
70902;BME280;58548;47.210;8.618;2023-03-03T07:18:49;94156.56;;;9.96;37.49
70902;BME280;58548;47.210;8.618;2023-03-03T07:21:34;94214.59;;;10.35;37.35
70902;BME280;58548;47.210;8.618;2023-03-03T07:26:44;94251.28;;;10.63;37.28
70902;BME280;58548;47.210;8.618;2023-03-03T07:29:28;94257.28;;;10.79;37.19
70902;BME280;58548;47.210;8.618;2023-03-03T07:32:00;94168.06;;;10.17;37.04
70902;BME280;58548;47.210;8.618;2023-03-03T07:34:37;94207.88;;;10.40;37.54
70902;BME280;58548;47.210;8.618;2023-03-03T07:37:14;94240.47;;;10.66;37.11
70902;BME280;58548;47.210;8.618;2023-03-03T07:39:44;94175.06;;;10.16;37.59
70902;BME280;58548;47.210;8.618;2023-03-03T07:42:25;94253.34;;;10.68;37.27
70902;BME280;58548;47.210;8.618;2023-03-03T07:44:58;94172.88;;;10.20;37.83
70902;BME280;58548;47.210;8.618;2023-03-03T07:47:26;94280.84;;;10.85;37.51
70902;BME280;58548;47.210;8.618;2023-03-03T07:49:58;94281.84;;;10.84;37.54
70902;BME280;58548;47.210;8.618;2023-03-03T07:54:59;94186.47;;;10.30;37.32
70902;BME280;58548;47.210;8.618;2023-03-03T07:57:36;94260.25;;;10.76;36.72
70902;BME280;58548;47.210;8.618;2023-03-03T08:02:48;94183.94;;;10.22;36.99
70902;BME280;58548;47.210;8.618;2023-03-03T08:10:52;94288.13;;;10.90;36.65
70902;BME280;58548;47.210;8.618;2023-03-03T08:15:52;94276.16;;;10.81;37.46
70902;BME280;58548;47.210;8.618;2023-03-03T08:20:51;94250.19;;;10.73;36.83
70902;BME280;58548;47.210;8.618;2023-03-03T08:23:19;94273.50;;;10.96;36.99
70902;BME280;58548;47.210;8.618;2023-03-03T08:25:47;94187.88;;;10.48;37.67
70902;BME280;58548;47.210;8.618;2023-03-03T08:28:13;94285.50;;;11.12;37.25
70902;BME280;58548;47.210;8.618;2023-03-03T08:30:42;94192.59;;;10.59;36.46
70902;BME280;58548;47.210;8.618;2023-03-03T08:33:08;94166.41;;;10.52;36.66
70902;BME280;58548;47.210;8.618;2023-03-03T08:35:37;94285.25;;;11.28;36.24
70902;BME280;58548;47.210;8.618;2023-03-03T08:38:04;94291.13;;;11.37;36.82
70902;BME280;58548;47.210;8.618;2023-03-03T08:40:33;94176.16;;;10.65;36.77
70902;BME280;58548;47.210;8.618;2023-03-03T08:43:01;94164.47;;;10.61;36.84
70902;BME280;58548;47.210;8.618;2023-03-03T08:45:31;94265.56;;;11.32;36.06
70902;BME280;58548;47.210;8.618;2023-03-03T08:48:00;94275.91;;;11.41;36.29
70902;BME280;58548;47.210;8.618;2023-03-03T08:50:28;94258.44;;;11.20;36.80
70902;BME280;58548;47.210;8.618;2023-03-03T08:52:55;94269.09;;;11.18;36.08
70902;BME280;58548;47.210;8.618;2023-03-03T08:55:21;94245.56;;;10.96;36.58
70902;BME280;58548;47.210;8.618;2023-03-03T08:57:54;94265.47;;;11.19;36.69
70902;BME280;58548;47.210;8.618;2023-03-03T09:00:25;94246.94;;;11.14;36.67
70902;BME280;58548;47.210;8.618;2023-03-03T09:02:52;94289.19;;;11.46;35.98
70902;BME280;58548;47.210;8.618;2023-03-03T09:05:22;94293.44;;;11.47;36.14
70902;BME280;58548;47.210;8.618;2023-03-03T09:07:50;94259.47;;;11.25;36.52
70902;BME280;58548;47.210;8.618;2023-03-03T09:10:20;94288.31;;;11.60;36.19
70902;BME280;58548;47.210;8.618;2023-03-03T09:12:56;94258.56;;;11.68;35.96
70902;BME280;58548;47.210;8.618;2023-03-03T09:15:29;94266.22;;;11.70;35.70
70902;BME280;58548;47.210;8.618;2023-03-03T09:18:24;94275.16;;;11.82;35.92
70902;BME280;58548;47.210;8.618;2023-03-03T09:20:54;94210.00;;;11.59;35.51
70902;BME280;58548;47.210;8.618;2023-03-03T09:25:58;94296.41;;;12.36;35.43
70902;BME280;58548;47.210;8.618;2023-03-03T09:28:31;94220.75;;;12.06;34.76
70902;BME280;58548;47.210;8.618;2023-03-03T09:31:00;94243.13;;;12.15;34.57
70902;BME280;58548;47.210;8.618;2023-03-03T09:38:44;94214.53;;;12.14;34.58
70902;BME280;58548;47.210;8.618;2023-03-03T10:26:32;94299.03;;;13.25;34.08
70902;BME280;58548;47.210;8.618;2023-03-03T10:29:02;94303.09;;;13.34;33.49
70902;BME280;58548;47.210;8.618;2023-03-03T10:31:40;94303.53;;;13.45;33.34
70902;BME280;58548;47.210;8.618;2023-03-03T10:34:58;94296.66;;;13.44;33.59
70902;BME280;58548;47.210;8.618;2023-03-03T10:45:40;94301.09;;;13.63;33.24
70902;BME280;58548;47.210;8.618;2023-03-03T10:51:52;94297.03;;;13.81;32.33
70902;BME280;58548;47.210;8.618;2023-03-03T10:57:17;94305.94;;;13.73;32.99
70902;BME280;58548;47.210;8.618;2023-03-03T11:02:36;94210.28;;;13.08;32.80
70902;BME280;58548;47.210;8.618;2023-03-03T11:07:49;94306.34;;;13.83;32.57
70902;BME280;58548;47.210;8.618;2023-03-03T11:16:41;94203.63;;;13.12;32.58
70902;BME280;58548;47.210;8.618;2023-03-03T11:22:45;94315.59;;;13.86;32.54
70902;BME280;58548;47.210;8.618;2023-03-03T11:25:25;94306.69;;;14.00;32.62
70902;BME280;58548;47.210;8.618;2023-03-03T11:36:09;94307.94;;;13.91;32.33
70902;BME280;58548;47.210;8.618;2023-03-03T11:39:08;94309.94;;;13.89;32.50
70902;BME280;58548;47.210;8.618;2023-03-03T11:41:39;94310.75;;;13.83;32.58
70902;BME280;58548;47.210;8.618;2023-03-03T11:44:37;94209.47;;;13.15;32.27
70902;BME280;58548;47.210;8.618;2023-03-03T11:50:03;94294.25;;;13.49;32.66
70902;BME280;58548;47.210;8.618;2023-03-03T11:52:52;94299.50;;;13.49;32.36
70902;BME280;58548;47.210;8.618;2023-03-03T11:55:26;94305.94;;;13.53;32.09
70902;BME280;58548;47.210;8.618;2023-03-03T12:03:40;94281.31;;;13.40;32.71
70902;BME280;58548;47.210;8.618;2023-03-03T12:12:22;94159.66;;;13.15;32.53
70902;BME280;58548;47.210;8.618;2023-03-03T12:18:05;94281.97;;;14.28;31.93
70902;BME280;58548;47.210;8.618;2023-03-03T12:20:42;94285.56;;;14.41;32.57
70902;BME280;58548;47.210;8.618;2023-03-03T12:28:57;94177.97;;;14.59;30.85
70902;BME280;58548;47.210;8.618;2023-03-03T12:34:34;94261.13;;;15.43;29.91
70902;BME280;58548;47.210;8.618;2023-03-03T12:39:43;94257.28;;;15.64;30.23
70902;BME280;58548;47.210;8.618;2023-03-03T12:42:40;94245.38;;;15.87;29.67
70902;BME280;58548;47.210;8.618;2023-03-03T12:48:06;94159.38;;;15.37;29.39
70902;BME280;58548;47.210;8.618;2023-03-03T12:53:37;94255.34;;;16.53;29.26
70902;BME280;58548;47.210;8.618;2023-03-03T12:59:12;94250.75;;;16.48;28.77
70902;BME280;58548;47.210;8.618;2023-03-03T13:10:04;94227.06;;;16.30;28.65
70902;BME280;58548;47.210;8.618;2023-03-03T13:12:45;94245.44;;;16.67;28.57
70902;BME280;58548;47.210;8.618;2023-03-03T13:18:24;94245.38;;;17.16;27.88
70902;BME280;58548;47.210;8.618;2023-03-03T13:21:41;94235.88;;;17.27;27.24
70902;BME280;58548;47.210;8.618;2023-03-03T13:24:20;94209.84;;;17.30;27.62
70902;BME280;58548;47.210;8.618;2023-03-03T13:27:09;94137.31;;;16.97;27.05
70902;BME280;58548;47.210;8.618;2023-03-03T13:29:42;94241.56;;;17.54;27.12
70902;BME280;58548;47.210;8.618;2023-03-03T13:32:21;94157.44;;;16.80;27.00
70902;BME280;58548;47.210;8.618;2023-03-03T13:34:58;94199.63;;;17.22;26.82
70902;BME280;58548;47.210;8.618;2023-03-03T13:37:35;94212.63;;;17.36;26.93
70902;BME280;58548;47.210;8.618;2023-03-03T13:43:03;94241.00;;;18.00;26.59
70902;BME280;58548;47.210;8.618;2023-03-03T13:45:50;94166.09;;;17.70;26.49
70902;BME280;58548;47.210;8.618;2023-03-03T13:50:56;94149.66;;;17.80;25.75
70902;BME280;58548;47.210;8.618;2023-03-03T14:04:39;94235.69;;;19.62;24.67
70902;BME280;58548;47.210;8.618;2023-03-03T14:07:23;94231.75;;;19.98;24.13
70902;BME280;58548;47.210;8.618;2023-03-03T14:13:08;94228.84;;;20.44;23.82
70902;BME280;58548;47.210;8.618;2023-03-03T14:20:55;94212.34;;;21.14;22.71
70902;BME280;58548;47.210;8.618;2023-03-03T14:26:08;94125.03;;;20.30;22.40
70902;BME280;58548;47.210;8.618;2023-03-03T14:28:40;94130.19;;;20.20;22.90
70902;BME280;58548;47.210;8.618;2023-03-03T14:31:39;94222.19;;;20.42;23.18
70902;BME280;58548;47.210;8.618;2023-03-03T14:36:51;94220.56;;;19.96;23.43
70902;BME280;58548;47.210;8.618;2023-03-03T14:39:38;94193.94;;;19.86;23.89
70902;BME280;58548;47.210;8.618;2023-03-03T14:42:14;94217.03;;;20.08;23.94
70902;BME280;58548;47.210;8.618;2023-03-03T14:44:56;94219.31;;;20.21;23.56
70902;BME280;58548;47.210;8.618;2023-03-03T14:47:25;94164.72;;;20.03;23.54
70902;BME280;58548;47.210;8.618;2023-03-03T14:49:55;94209.50;;;20.44;23.72
70902;BME280;58548;47.210;8.618;2023-03-03T14:52:30;94213.63;;;20.57;23.73
70902;BME280;58548;47.210;8.618;2023-03-03T14:55:55;94211.31;;;20.66;23.28
70902;BME280;58548;47.210;8.618;2023-03-03T15:00:52;94141.91;;;20.02;23.47
70902;BME280;58548;47.210;8.618;2023-03-03T15:03:34;94152.78;;;20.00;23.66
70902;BME280;58548;47.210;8.618;2023-03-03T15:06:30;94210.78;;;20.19;23.38
70902;BME280;58548;47.210;8.618;2023-03-03T15:11:54;94104.00;;;19.01;23.69
70902;BME280;58548;47.210;8.618;2023-03-03T15:14:47;94183.41;;;19.35;23.68
70902;BME280;58548;47.210;8.618;2023-03-03T15:17:26;94226.41;;;19.25;24.51
70902;BME280;58548;47.210;8.618;2023-03-03T15:42:51;94121.47;;;16.43;27.36
70902;BME280;58548;47.210;8.618;2023-03-03T15:45:55;94103.59;;;16.15;27.81
70902;BME280;58548;47.210;8.618;2023-03-03T15:51:14;94215.94;;;16.58;28.55
70902;BME280;58548;47.210;8.618;2023-03-03T16:02:20;94222.47;;;16.25;29.10
70902;BME280;58548;47.210;8.618;2023-03-03T16:05:33;94222.75;;;16.17;29.32
70902;BME280;58548;47.210;8.618;2023-03-03T16:08:20;94163.97;;;15.79;29.38
70902;BME280;58548;47.210;8.618;2023-03-03T16:11:10;94170.22;;;15.66;29.52
70902;BME280;58548;47.210;8.618;2023-03-03T16:19:41;94218.66;;;15.58;29.92
70902;BME280;58548;47.210;8.618;2023-03-03T16:36:18;94147.78;;;14.37;31.26
70902;BME280;58548;47.210;8.618;2023-03-03T16:41:25;94249.47;;;14.75;31.53
70902;BME280;58548;47.210;8.618;2023-03-03T16:44:21;94262.44;;;14.63;31.65
70902;BME280;58548;47.210;8.618;2023-03-03T16:47:14;94193.16;;;14.12;31.74
70902;BME280;58548;47.210;8.618;2023-03-03T16:49:58;94237.13;;;14.23;32.16
70902;BME280;58548;47.210;8.618;2023-03-03T16:52:43;94267.84;;;14.29;32.51
70902;BME280;58548;47.210;8.618;2023-03-03T16:55:33;94267.47;;;14.19;32.43
70902;BME280;58548;47.210;8.618;2023-03-03T17:03:53;94289.75;;;13.83;32.96
70902;BME280;58548;47.210;8.618;2023-03-03T17:12:53;94293.00;;;13.38;33.39
70902;BME280;58548;47.210;8.618;2023-03-03T17:26:20;94302.59;;;12.70;34.33
70902;BME280;58548;47.210;8.618;2023-03-03T18:01:27;94352.34;;;12.21;35.82
70902;BME280;58548;47.210;8.618;2023-03-03T18:23:35;94263.38;;;11.65;36.23
70902;BME280;58548;47.210;8.618;2023-03-03T18:39:45;94368.09;;;12.35;36.73
70902;BME280;58548;47.210;8.618;2023-03-03T18:42:38;94380.19;;;12.36;36.35
70902;BME280;58548;47.210;8.618;2023-03-03T18:55:45;94273.69;;;11.73;36.50
70902;BME280;58548;47.210;8.618;2023-03-03T19:00:55;94341.38;;;12.11;36.96
70902;BME280;58548;47.210;8.618;2023-03-03T19:05:51;94359.56;;;12.19;36.56
70902;BME280;58548;47.210;8.618;2023-03-03T19:08:43;94393.53;;;12.41;36.76
70902;BME280;58548;47.210;8.618;2023-03-03T19:14:29;94279.09;;;11.65;36.47
70902;BME280;58548;47.210;8.618;2023-03-03T19:20:17;94385.44;;;12.36;36.86
70902;BME280;58548;47.210;8.618;2023-03-03T19:25:23;94349.03;;;12.06;36.84
70902;BME280;58548;47.210;8.618;2023-03-03T19:50:12;94394.59;;;12.18;37.01
70902;BME280;58548;47.210;8.618;2023-03-03T19:53:04;94394.38;;;12.13;37.19
70902;BME280;58548;47.210;8.618;2023-03-03T20:01:46;94408.28;;;12.14;37.63
70902;BME280;58548;47.210;8.618;2023-03-03T20:08:04;94416.31;;;12.12;37.84
70902;BME280;58548;47.210;8.618;2023-03-03T20:22:13;94401.69;;;11.96;37.83
70902;BME280;58548;47.210;8.618;2023-03-03T20:46:46;94450.03;;;12.29;37.16
70902;BME280;58548;47.210;8.618;2023-03-03T20:49:56;94455.69;;;12.26;37.79
70902;BME280;58548;47.210;8.618;2023-03-03T20:53:00;94443.34;;;12.19;37.77
70902;BME280;58548;47.210;8.618;2023-03-03T21:04:31;94448.22;;;12.23;37.56